Huvudsida
METAR-TAF:

METAR-TAF

Flygplatser :

Latina Airport

Latina, Italien

latitud: 41-33N, longitud: 012-54E, höjd: 25 m

Aktuellt väderrapport

Denna rapport gjordes för 1 timme och 45 minuter sedan, klockan 17:55 UTC
Vind 9 kt från nord/nordväst
Temperatur 14°C
Fuktighet 18%
Tryck 1015 hPa
Sikt 10 km eller mer
Inga moln under 1 500 m eller inga cumulonimbus

METAR: LIRL 281755Z 33009KT CAVOK 14/M10 Q1015 RMK SKC MON INVIS VAR RAPID VIS MIN 9999 WIND THR12 33011KT WIND THR30 33011KT BLU

Tid: 20:40 (19:40 UTC)

Väderprognos

Denna rapport gjordes för 5 timmar och 40 minuter sedan, klockan 14:00 UTC
Prognos gäller från 28 kl. 15 UTC till 28 kl. 24 UTC
Vind 14 kt från nord
Sikt 10 km eller mer
Inga moln under 1 500 m eller inga cumulonimbus
Blir
från 28 kl. 20 UTC till 28 kl. 22 UTC
Vind 3 kt varierande vindriktning
Sikt: 5000 m
Få moln på en höjd av 700 ft
fuktdis

TAF: LIRL 281400Z 2815/2824 35014KT CAVOK BECMG 2820/2822 VRB03KT 5000 BR FEW007

Aktuella väderrapporter och prognoser från 4000 flygplatser (METAR- och TAF-rapporter).

De tillgängliga stationerna syns som gula och röda prickar på kartan.

För musen över prickarna för att se namnen på stationerna.

Klicka sedan för att få väderrapporter och prognoser.

För att ändra kartan: Klicka på de gröna knapparna med ett svart kors på för att zooma in; den gröna knappen med ett streck på för att zooma ut; eller på de gröna pilarna för angränsande kartor.


METAR-TAF: